sensor_id;sensor_type;location;lat;lon;timestamp;P1;durP1;ratioP1;P2;durP2;ratioP2
85475;SDS011;75880;41.476;22.164;2024-03-17T00:02:17;13.90;;;6.68;;
85475;SDS011;75880;41.476;22.164;2024-03-17T00:04:45;14.73;;;7.60;;
85475;SDS011;75880;41.476;22.164;2024-03-17T00:07:11;11.23;;;6.50;;
85475;SDS011;75880;41.476;22.164;2024-03-17T00:09:38;11.68;;;6.93;;
85475;SDS011;75880;41.476;22.164;2024-03-17T00:12:05;9.57;;;6.95;;
85475;SDS011;75880;41.476;22.164;2024-03-17T00:14:31;11.48;;;6.82;;
85475;SDS011;75880;41.476;22.164;2024-03-17T00:16:57;11.25;;;6.95;;
85475;SDS011;75880;41.476;22.164;2024-03-17T00:19:26;10.38;;;6.97;;
85475;SDS011;75880;41.476;22.164;2024-03-17T00:21:51;10.25;;;7.00;;
85475;SDS011;75880;41.476;22.164;2024-03-17T00:24:18;11.60;;;6.22;;
85475;SDS011;75880;41.476;22.164;2024-03-17T00:26:45;12.18;;;6.93;;
85475;SDS011;75880;41.476;22.164;2024-03-17T00:29:11;10.98;;;6.97;;
85475;SDS011;75880;41.476;22.164;2024-03-17T00:31:37;13.45;;;7.03;;
85475;SDS011;75880;41.476;22.164;2024-03-17T00:34:03;12.02;;;7.40;;
85475;SDS011;75880;41.476;22.164;2024-03-17T00:36:29;9.80;;;6.70;;
85475;SDS011;75880;41.476;22.164;2024-03-17T00:38:58;23.75;;;11.55;;
85475;SDS011;75880;41.476;22.164;2024-03-17T00:41:24;18.55;;;10.57;;
85475;SDS011;75880;41.476;22.164;2024-03-17T00:43:50;12.65;;;8.27;;
85475;SDS011;75880;41.476;22.164;2024-03-17T00:46:19;11.98;;;7.07;;
85475;SDS011;75880;41.476;22.164;2024-03-17T00:48:49;12.75;;;7.20;;
85475;SDS011;75880;41.476;22.164;2024-03-17T00:51:15;10.43;;;6.78;;
85475;SDS011;75880;41.476;22.164;2024-03-17T00:53:42;9.45;;;5.80;;
85475;SDS011;75880;41.476;22.164;2024-03-17T00:56:08;10.57;;;5.55;;
85475;SDS011;75880;41.476;22.164;2024-03-17T00:58:34;8.63;;;5.97;;
85475;SDS011;75880;41.476;22.164;2024-03-17T01:01:00;15.52;;;9.40;;
85475;SDS011;75880;41.476;22.164;2024-03-17T01:03:26;19.23;;;10.85;;
85475;SDS011;75880;41.476;22.164;2024-03-17T01:05:55;10.82;;;7.22;;
85475;SDS011;75880;41.476;22.164;2024-03-17T01:08:20;14.88;;;8.38;;
85475;SDS011;75880;41.476;22.164;2024-03-17T01:10:48;12.00;;;7.10;;
85475;SDS011;75880;41.476;22.164;2024-03-17T01:13:16;10.35;;;7.18;;
85475;SDS011;75880;41.476;22.164;2024-03-17T01:15:44;10.40;;;7.43;;
85475;SDS011;75880;41.476;22.164;2024-03-17T01:18:10;11.15;;;6.82;;
85475;SDS011;75880;41.476;22.164;2024-03-17T01:20:35;10.82;;;6.85;;
85475;SDS011;75880;41.476;22.164;2024-03-17T01:23:05;8.63;;;6.38;;
85475;SDS011;75880;41.476;22.164;2024-03-17T01:25:30;10.35;;;7.70;;
85475;SDS011;75880;41.476;22.164;2024-03-17T01:28:02;13.55;;;7.53;;
85475;SDS011;75880;41.476;22.164;2024-03-17T01:30:29;11.45;;;7.20;;
85475;SDS011;75880;41.476;22.164;2024-03-17T01:32:55;12.13;;;8.68;;
85475;SDS011;75880;41.476;22.164;2024-03-17T01:35:21;12.93;;;8.20;;
85475;SDS011;75880;41.476;22.164;2024-03-17T01:37:48;11.07;;;7.32;;
85475;SDS011;75880;41.476;22.164;2024-03-17T01:40:14;10.25;;;7.10;;
85475;SDS011;75880;41.476;22.164;2024-03-17T01:42:40;9.98;;;6.13;;
85475;SDS011;75880;41.476;22.164;2024-03-17T01:47:58;8.13;;;6.10;;
85475;SDS011;75880;41.476;22.164;2024-03-17T01:50:26;7.80;;;5.78;;
85475;SDS011;75880;41.476;22.164;2024-03-17T01:52:57;11.18;;;7.35;;
85475;SDS011;75880;41.476;22.164;2024-03-17T01:55:27;11.65;;;6.43;;
85475;SDS011;75880;41.476;22.164;2024-03-17T01:57:53;10.75;;;6.97;;
85475;SDS011;75880;41.476;22.164;2024-03-17T02:00:19;9.43;;;6.65;;
85475;SDS011;75880;41.476;22.164;2024-03-17T02:02:46;10.50;;;5.95;;
85475;SDS011;75880;41.476;22.164;2024-03-17T02:05:12;8.10;;;5.43;;
85475;SDS011;75880;41.476;22.164;2024-03-17T02:07:38;10.55;;;6.43;;
85475;SDS011;75880;41.476;22.164;2024-03-17T02:10:04;8.60;;;5.95;;
85475;SDS011;75880;41.476;22.164;2024-03-17T02:12:30;8.93;;;6.28;;
85475;SDS011;75880;41.476;22.164;2024-03-17T02:14:57;8.30;;;5.50;;
85475;SDS011;75880;41.476;22.164;2024-03-17T02:17:24;9.07;;;6.55;;
85475;SDS011;75880;41.476;22.164;2024-03-17T02:19:51;11.32;;;6.72;;
85475;SDS011;75880;41.476;22.164;2024-03-17T02:22:17;10.98;;;7.18;;
85475;SDS011;75880;41.476;22.164;2024-03-17T02:24:43;11.07;;;7.20;;
85475;SDS011;75880;41.476;22.164;2024-03-17T02:27:09;8.88;;;6.45;;
85475;SDS011;75880;41.476;22.164;2024-03-17T02:29:35;11.32;;;7.15;;
85475;SDS011;75880;41.476;22.164;2024-03-17T02:32:02;11.07;;;7.15;;
85475;SDS011;75880;41.476;22.164;2024-03-17T02:34:35;10.80;;;7.20;;
85475;SDS011;75880;41.476;22.164;2024-03-17T02:37:02;9.80;;;7.07;;
85475;SDS011;75880;41.476;22.164;2024-03-17T02:39:30;10.75;;;7.72;;
85475;SDS011;75880;41.476;22.164;2024-03-17T02:42:06;13.88;;;8.68;;
85475;SDS011;75880;41.476;22.164;2024-03-17T02:44:33;13.30;;;7.60;;
85475;SDS011;75880;41.476;22.164;2024-03-17T02:47:01;10.48;;;7.00;;
85475;SDS011;75880;41.476;22.164;2024-03-17T02:49:34;12.60;;;6.80;;
85475;SDS011;75880;41.476;22.164;2024-03-17T02:52:09;12.10;;;7.35;;
85475;SDS011;75880;41.476;22.164;2024-03-17T02:54:37;14.18;;;8.25;;
85475;SDS011;75880;41.476;22.164;2024-03-17T02:57:04;14.85;;;8.40;;
85475;SDS011;75880;41.476;22.164;2024-03-17T02:59:30;11.50;;;7.75;;
85475;SDS011;75880;41.476;22.164;2024-03-17T03:01:56;17.20;;;9.50;;
85475;SDS011;75880;41.476;22.164;2024-03-17T03:04:23;12.30;;;7.85;;
85475;SDS011;75880;41.476;22.164;2024-03-17T03:06:51;10.38;;;7.47;;
85475;SDS011;75880;41.476;22.164;2024-03-17T03:09:17;12.98;;;7.32;;
85475;SDS011;75880;41.476;22.164;2024-03-17T03:11:56;11.43;;;7.72;;
85475;SDS011;75880;41.476;22.164;2024-03-17T03:14:23;12.35;;;8.18;;
85475;SDS011;75880;41.476;22.164;2024-03-17T03:16:51;10.32;;;7.82;;
85475;SDS011;75880;41.476;22.164;2024-03-17T03:19:17;9.95;;;7.00;;
85475;SDS011;75880;41.476;22.164;2024-03-17T03:21:44;10.85;;;7.00;;
85475;SDS011;75880;41.476;22.164;2024-03-17T03:24:11;13.05;;;7.50;;
85475;SDS011;75880;41.476;22.164;2024-03-17T03:26:39;10.50;;;7.25;;
85475;SDS011;75880;41.476;22.164;2024-03-17T03:29:05;10.93;;;7.15;;
85475;SDS011;75880;41.476;22.164;2024-03-17T03:31:32;12.45;;;7.07;;
85475;SDS011;75880;41.476;22.164;2024-03-17T03:33:58;10.13;;;7.55;;
85475;SDS011;75880;41.476;22.164;2024-03-17T03:36:28;12.35;;;7.60;;
85475;SDS011;75880;41.476;22.164;2024-03-17T03:38:55;10.68;;;7.10;;
85475;SDS011;75880;41.476;22.164;2024-03-17T03:41:22;11.95;;;7.85;;
85475;SDS011;75880;41.476;22.164;2024-03-17T03:43:48;13.27;;;8.05;;
85475;SDS011;75880;41.476;22.164;2024-03-17T03:46:14;10.88;;;7.32;;
85475;SDS011;75880;41.476;22.164;2024-03-17T03:48:40;12.27;;;7.60;;
85475;SDS011;75880;41.476;22.164;2024-03-17T03:51:09;14.30;;;7.80;;
85475;SDS011;75880;41.476;22.164;2024-03-17T03:53:36;11.70;;;7.82;;
85475;SDS011;75880;41.476;22.164;2024-03-17T03:56:03;9.88;;;6.43;;
85475;SDS011;75880;41.476;22.164;2024-03-17T03:58:33;12.07;;;7.35;;
85475;SDS011;75880;41.476;22.164;2024-03-17T04:01:04;11.40;;;7.35;;
85475;SDS011;75880;41.476;22.164;2024-03-17T04:03:31;8.90;;;6.43;;
85475;SDS011;75880;41.476;22.164;2024-03-17T04:06:08;12.50;;;8.00;;
85475;SDS011;75880;41.476;22.164;2024-03-17T04:08:38;11.25;;;7.30;;
85475;SDS011;75880;41.476;22.164;2024-03-17T04:11:07;10.88;;;7.43;;
85475;SDS011;75880;41.476;22.164;2024-03-17T04:13:34;15.90;;;8.27;;
85475;SDS011;75880;41.476;22.164;2024-03-17T04:16:08;13.90;;;8.27;;
85475;SDS011;75880;41.476;22.164;2024-03-17T04:18:35;14.60;;;8.40;;
85475;SDS011;75880;41.476;22.164;2024-03-17T04:21:06;13.05;;;8.00;;
85475;SDS011;75880;41.476;22.164;2024-03-17T04:23:32;12.55;;;8.13;;
85475;SDS011;75880;41.476;22.164;2024-03-17T04:25:58;13.13;;;8.38;;
85475;SDS011;75880;41.476;22.164;2024-03-17T04:28:25;14.77;;;7.78;;
85475;SDS011;75880;41.476;22.164;2024-03-17T04:30:51;13.40;;;7.88;;
85475;SDS011;75880;41.476;22.164;2024-03-17T04:33:17;10.07;;;7.35;;
85475;SDS011;75880;41.476;22.164;2024-03-17T04:35:43;11.07;;;7.40;;
85475;SDS011;75880;41.476;22.164;2024-03-17T04:38:12;12.80;;;7.80;;
85475;SDS011;75880;41.476;22.164;2024-03-17T04:40:40;12.40;;;7.65;;
85475;SDS011;75880;41.476;22.164;2024-03-17T04:43:06;11.95;;;8.10;;
85475;SDS011;75880;41.476;22.164;2024-03-17T04:45:32;12.38;;;8.00;;
85475;SDS011;75880;41.476;22.164;2024-03-17T04:47:58;12.38;;;7.68;;
85475;SDS011;75880;41.476;22.164;2024-03-17T04:50:24;10.02;;;6.68;;
85475;SDS011;75880;41.476;22.164;2024-03-17T04:52:51;11.35;;;6.75;;
85475;SDS011;75880;41.476;22.164;2024-03-17T04:55:17;11.45;;;7.93;;
85475;SDS011;75880;41.476;22.164;2024-03-17T04:57:44;12.90;;;9.02;;
85475;SDS011;75880;41.476;22.164;2024-03-17T05:00:11;12.63;;;8.15;;
85475;SDS011;75880;41.476;22.164;2024-03-17T05:02:39;8.77;;;6.85;;
85475;SDS011;75880;41.476;22.164;2024-03-17T05:05:05;9.63;;;6.22;;
85475;SDS011;75880;41.476;22.164;2024-03-17T05:07:33;7.35;;;5.55;;
85475;SDS011;75880;41.476;22.164;2024-03-17T05:10:00;8.10;;;5.70;;
85475;SDS011;75880;41.476;22.164;2024-03-17T05:12:26;13.60;;;6.28;;
85475;SDS011;75880;41.476;22.164;2024-03-17T05:14:51;31.10;;;16.95;;
85475;SDS011;75880;41.476;22.164;2024-03-17T05:17:17;14.05;;;9.48;;
85475;SDS011;75880;41.476;22.164;2024-03-17T05:19:43;13.45;;;8.93;;
85475;SDS011;75880;41.476;22.164;2024-03-17T05:22:09;12.95;;;9.32;;
85475;SDS011;75880;41.476;22.164;2024-03-17T05:24:35;11.48;;;5.93;;
85475;SDS011;75880;41.476;22.164;2024-03-17T05:27:01;8.68;;;6.10;;
85475;SDS011;75880;41.476;22.164;2024-03-17T05:29:27;9.48;;;6.57;;
85475;SDS011;75880;41.476;22.164;2024-03-17T05:31:53;8.65;;;6.60;;
85475;SDS011;75880;41.476;22.164;2024-03-17T05:34:18;9.48;;;6.00;;
85475;SDS011;75880;41.476;22.164;2024-03-17T05:36:44;12.25;;;7.93;;
85475;SDS011;75880;41.476;22.164;2024-03-17T05:39:11;8.95;;;5.90;;
85475;SDS011;75880;41.476;22.164;2024-03-17T05:41:37;8.00;;;5.47;;
85475;SDS011;75880;41.476;22.164;2024-03-17T05:44:06;9.73;;;7.82;;
85475;SDS011;75880;41.476;22.164;2024-03-17T05:46:32;9.57;;;7.05;;
85475;SDS011;75880;41.476;22.164;2024-03-17T05:48:58;9.32;;;6.53;;
85475;SDS011;75880;41.476;22.164;2024-03-17T05:51:23;11.98;;;8.07;;
85475;SDS011;75880;41.476;22.164;2024-03-17T05:53:53;13.57;;;8.27;;
85475;SDS011;75880;41.476;22.164;2024-03-17T05:56:21;19.95;;;11.73;;
85475;SDS011;75880;41.476;22.164;2024-03-17T05:58:49;11.50;;;8.00;;
85475;SDS011;75880;41.476;22.164;2024-03-17T06:01:15;14.15;;;8.43;;
85475;SDS011;75880;41.476;22.164;2024-03-17T06:03:40;13.75;;;8.77;;
85475;SDS011;75880;41.476;22.164;2024-03-17T06:20:26;12.45;;;8.55;;
85475;SDS011;75880;41.476;22.164;2024-03-17T06:22:56;11.02;;;7.47;;
85475;SDS011;75880;41.476;22.164;2024-03-17T06:25:22;11.35;;;8.20;;
85475;SDS011;75880;41.476;22.164;2024-03-17T06:27:51;11.45;;;7.47;;
85475;SDS011;75880;41.476;22.164;2024-03-17T06:30:17;10.07;;;7.35;;
85475;SDS011;75880;41.476;22.164;2024-03-17T06:32:44;9.90;;;6.80;;
85475;SDS011;75880;41.476;22.164;2024-03-17T06:35:11;15.20;;;9.45;;
85475;SDS011;75880;41.476;22.164;2024-03-17T06:37:40;50.13;;;21.70;;
85475;SDS011;75880;41.476;22.164;2024-03-17T06:40:08;14.68;;;8.40;;
85475;SDS011;75880;41.476;22.164;2024-03-17T06:42:38;11.38;;;6.80;;
85475;SDS011;75880;41.476;22.164;2024-03-17T06:45:04;7.82;;;5.90;;
85475;SDS011;75880;41.476;22.164;2024-03-17T06:47:30;10.93;;;6.72;;
85475;SDS011;75880;41.476;22.164;2024-03-17T06:49:56;11.65;;;7.13;;
85475;SDS011;75880;41.476;22.164;2024-03-17T06:52:22;17.02;;;8.95;;
85475;SDS011;75880;41.476;22.164;2024-03-17T06:54:47;11.00;;;7.70;;
85475;SDS011;75880;41.476;22.164;2024-03-17T06:57:16;13.23;;;7.65;;
85475;SDS011;75880;41.476;22.164;2024-03-17T06:59:44;8.85;;;6.00;;
85475;SDS011;75880;41.476;22.164;2024-03-17T07:02:11;13.75;;;7.65;;
85475;SDS011;75880;41.476;22.164;2024-03-17T07:04:40;8.20;;;5.53;;
85475;SDS011;75880;41.476;22.164;2024-03-17T07:07:06;11.75;;;7.07;;
85475;SDS011;75880;41.476;22.164;2024-03-17T07:09:31;10.00;;;6.78;;
85475;SDS011;75880;41.476;22.164;2024-03-17T07:11:57;11.90;;;7.05;;
85475;SDS011;75880;41.476;22.164;2024-03-17T07:14:23;12.35;;;7.63;;
85475;SDS011;75880;41.476;22.164;2024-03-17T07:16:51;10.35;;;6.45;;
85475;SDS011;75880;41.476;22.164;2024-03-17T07:19:16;10.68;;;6.10;;
85475;SDS011;75880;41.476;22.164;2024-03-17T07:21:42;9.48;;;6.47;;
85475;SDS011;75880;41.476;22.164;2024-03-17T07:24:08;9.38;;;7.13;;
85475;SDS011;75880;41.476;22.164;2024-03-17T07:26:34;11.02;;;6.50;;
85475;SDS011;75880;41.476;22.164;2024-03-17T07:29:00;8.40;;;6.22;;
85475;SDS011;75880;41.476;22.164;2024-03-17T07:31:25;8.13;;;5.93;;
85475;SDS011;75880;41.476;22.164;2024-03-17T07:33:51;8.40;;;6.57;;
85475;SDS011;75880;41.476;22.164;2024-03-17T07:36:17;13.55;;;7.30;;
85475;SDS011;75880;41.476;22.164;2024-03-17T07:38:42;8.10;;;6.78;;
85475;SDS011;75880;41.476;22.164;2024-03-17T07:41:08;11.52;;;6.90;;
85475;SDS011;75880;41.476;22.164;2024-03-17T07:43:37;9.40;;;6.20;;
85475;SDS011;75880;41.476;22.164;2024-03-17T07:46:04;10.00;;;6.78;;
85475;SDS011;75880;41.476;22.164;2024-03-17T07:48:38;8.82;;;6.20;;
85475;SDS011;75880;41.476;22.164;2024-03-17T07:51:06;9.02;;;5.20;;
85475;SDS011;75880;41.476;22.164;2024-03-17T07:53:35;12.00;;;7.30;;
85475;SDS011;75880;41.476;22.164;2024-03-17T07:56:02;7.78;;;5.88;;
85475;SDS011;75880;41.476;22.164;2024-03-17T07:58:29;9.63;;;6.53;;
85475;SDS011;75880;41.476;22.164;2024-03-17T08:00:58;9.57;;;6.18;;
85475;SDS011;75880;41.476;22.164;2024-03-17T08:03:25;9.45;;;6.63;;
85475;SDS011;75880;41.476;22.164;2024-03-17T08:05:51;8.13;;;6.35;;
85475;SDS011;75880;41.476;22.164;2024-03-17T08:08:18;8.70;;;6.28;;
85475;SDS011;75880;41.476;22.164;2024-03-17T08:10:44;8.82;;;6.15;;
85475;SDS011;75880;41.476;22.164;2024-03-17T08:13:10;12.60;;;8.27;;
85475;SDS011;75880;41.476;22.164;2024-03-17T08:15:41;11.65;;;6.65;;
85475;SDS011;75880;41.476;22.164;2024-03-17T08:18:07;10.02;;;6.72;;
85475;SDS011;75880;41.476;22.164;2024-03-17T08:20:42;10.80;;;7.10;;
85475;SDS011;75880;41.476;22.164;2024-03-17T08:23:11;13.45;;;8.02;;
85475;SDS011;75880;41.476;22.164;2024-03-17T08:25:40;9.95;;;7.13;;
85475;SDS011;75880;41.476;22.164;2024-03-17T08:28:06;10.05;;;7.50;;
85475;SDS011;75880;41.476;22.164;2024-03-17T08:30:34;12.68;;;7.78;;
85475;SDS011;75880;41.476;22.164;2024-03-17T08:33:00;11.75;;;7.65;;
85475;SDS011;75880;41.476;22.164;2024-03-17T08:35:26;12.40;;;6.97;;
85475;SDS011;75880;41.476;22.164;2024-03-17T08:37:52;9.75;;;6.72;;
85475;SDS011;75880;41.476;22.164;2024-03-17T08:40:20;10.52;;;7.25;;
85475;SDS011;75880;41.476;22.164;2024-03-17T08:42:46;17.15;;;9.23;;
85475;SDS011;75880;41.476;22.164;2024-03-17T08:45:12;7.50;;;5.85;;
85475;SDS011;75880;41.476;22.164;2024-03-17T08:47:38;14.55;;;6.22;;
85475;SDS011;75880;41.476;22.164;2024-03-17T08:50:04;8.73;;;6.18;;
85475;SDS011;75880;41.476;22.164;2024-03-17T08:52:32;8.05;;;5.50;;
85475;SDS011;75880;41.476;22.164;2024-03-17T08:54:58;10.15;;;6.15;;
85475;SDS011;75880;41.476;22.164;2024-03-17T08:57:24;15.52;;;6.32;;
85475;SDS011;75880;41.476;22.164;2024-03-17T08:59:51;7.82;;;5.30;;
85475;SDS011;75880;41.476;22.164;2024-03-17T09:02:19;10.57;;;6.00;;
85475;SDS011;75880;41.476;22.164;2024-03-17T09:04:55;29.55;;;7.22;;
85475;SDS011;75880;41.476;22.164;2024-03-17T09:07:20;8.85;;;5.68;;
85475;SDS011;75880;41.476;22.164;2024-03-17T09:09:46;9.23;;;5.60;;
85475;SDS011;75880;41.476;22.164;2024-03-17T09:12:13;6.47;;;5.07;;
85475;SDS011;75880;41.476;22.164;2024-03-17T09:14:38;7.70;;;4.97;;
85475;SDS011;75880;41.476;22.164;2024-03-17T09:17:06;10.68;;;4.95;;
85475;SDS011;75880;41.476;22.164;2024-03-17T09:19:32;8.68;;;5.07;;
85475;SDS011;75880;41.476;22.164;2024-03-17T09:21:58;7.68;;;4.90;;
85475;SDS011;75880;41.476;22.164;2024-03-17T09:24:24;7.20;;;5.05;;
85475;SDS011;75880;41.476;22.164;2024-03-17T09:26:49;8.52;;;5.47;;
85475;SDS011;75880;41.476;22.164;2024-03-17T09:29:15;6.68;;;4.95;;
85475;SDS011;75880;41.476;22.164;2024-03-17T09:31:41;8.00;;;5.20;;
85475;SDS011;75880;41.476;22.164;2024-03-17T09:34:07;9.60;;;5.70;;
85475;SDS011;75880;41.476;22.164;2024-03-17T09:36:34;9.75;;;5.75;;
85475;SDS011;75880;41.476;22.164;2024-03-17T09:39:00;7.40;;;5.22;;
85475;SDS011;75880;41.476;22.164;2024-03-17T09:41:29;7.93;;;6.03;;
85475;SDS011;75880;41.476;22.164;2024-03-17T09:43:58;11.30;;;5.57;;
85475;SDS011;75880;41.476;22.164;2024-03-17T09:46:25;6.63;;;4.85;;
85475;SDS011;75880;41.476;22.164;2024-03-17T09:48:54;10.68;;;5.15;;
85475;SDS011;75880;41.476;22.164;2024-03-17T09:51:26;8.98;;;6.00;;
85475;SDS011;75880;41.476;22.164;2024-03-17T09:53:54;9.85;;;5.90;;
85475;SDS011;75880;41.476;22.164;2024-03-17T09:56:20;8.20;;;6.22;;
85475;SDS011;75880;41.476;22.164;2024-03-17T09:58:46;7.88;;;5.22;;
85475;SDS011;75880;41.476;22.164;2024-03-17T10:01:14;9.82;;;4.95;;
85475;SDS011;75880;41.476;22.164;2024-03-17T10:06:15;5.75;;;4.63;;
85475;SDS011;75880;41.476;22.164;2024-03-17T10:11:06;7.97;;;4.78;;
85475;SDS011;75880;41.476;22.164;2024-03-17T10:13:33;6.45;;;4.43;;
85475;SDS011;75880;41.476;22.164;2024-03-17T10:15:59;8.85;;;5.05;;
85475;SDS011;75880;41.476;22.164;2024-03-17T10:18:24;6.45;;;4.72;;
85475;SDS011;75880;41.476;22.164;2024-03-17T10:20:50;6.95;;;4.45;;
85475;SDS011;75880;41.476;22.164;2024-03-17T10:23:20;7.47;;;4.32;;
85475;SDS011;75880;41.476;22.164;2024-03-17T10:25:46;6.13;;;4.95;;
85475;SDS011;75880;41.476;22.164;2024-03-17T10:28:12;6.93;;;4.47;;
85475;SDS011;75880;41.476;22.164;2024-03-17T10:30:39;9.35;;;4.70;;
85475;SDS011;75880;41.476;22.164;2024-03-17T10:33:06;6.57;;;4.82;;
85475;SDS011;75880;41.476;22.164;2024-03-17T10:35:37;6.38;;;4.15;;
85475;SDS011;75880;41.476;22.164;2024-03-17T10:38:08;7.15;;;4.35;;
85475;SDS011;75880;41.476;22.164;2024-03-17T10:40:36;7.57;;;4.30;;
85475;SDS011;75880;41.476;22.164;2024-03-17T10:43:04;5.53;;;3.60;;
85475;SDS011;75880;41.476;22.164;2024-03-17T10:45:35;6.75;;;4.25;;
85475;SDS011;75880;41.476;22.164;2024-03-17T10:48:07;33.05;;;14.43;;
85475;SDS011;75880;41.476;22.164;2024-03-17T10:50:37;9.30;;;5.75;;
85475;SDS011;75880;41.476;22.164;2024-03-17T10:53:04;8.05;;;5.15;;
85475;SDS011;75880;41.476;22.164;2024-03-17T10:55:43;6.93;;;4.50;;
85475;SDS011;75880;41.476;22.164;2024-03-17T10:58:53;6.38;;;4.30;;
85475;SDS011;75880;41.476;22.164;2024-03-17T11:01:04;7.82;;;4.95;;
85475;SDS011;75880;41.476;22.164;2024-03-17T11:03:31;8.32;;;4.97;;
85475;SDS011;75880;41.476;22.164;2024-03-17T11:05:58;5.47;;;3.72;;
85475;SDS011;75880;41.476;22.164;2024-03-17T11:08:26;7.38;;;4.00;;
85475;SDS011;75880;41.476;22.164;2024-03-17T11:10:52;6.75;;;5.03;;
85475;SDS011;75880;41.476;22.164;2024-03-17T11:13:26;9.82;;;4.65;;
85475;SDS011;75880;41.476;22.164;2024-03-17T11:15:53;4.88;;;3.60;;
85475;SDS011;75880;41.476;22.164;2024-03-17T11:23:31;6.88;;;3.70;;
85475;SDS011;75880;41.476;22.164;2024-03-17T11:25:57;5.97;;;3.33;;
85475;SDS011;75880;41.476;22.164;2024-03-17T11:31:33;5.85;;;3.17;;
85475;SDS011;75880;41.476;22.164;2024-03-17T11:36:59;4.72;;;3.30;;
85475;SDS011;75880;41.476;22.164;2024-03-17T11:42:12;6.88;;;4.05;;
85475;SDS011;75880;41.476;22.164;2024-03-17T11:44:41;5.15;;;3.20;;
85475;SDS011;75880;41.476;22.164;2024-03-17T11:47:08;4.63;;;3.20;;
85475;SDS011;75880;41.476;22.164;2024-03-17T11:49:34;3.63;;;3.13;;
85475;SDS011;75880;41.476;22.164;2024-03-17T11:52:15;6.47;;;3.22;;
85475;SDS011;75880;41.476;22.164;2024-03-17T11:54:45;4.88;;;3.33;;
85475;SDS011;75880;41.476;22.164;2024-03-17T11:57:21;7.53;;;3.70;;
85475;SDS011;75880;41.476;22.164;2024-03-17T11:59:48;5.55;;;3.13;;
85475;SDS011;75880;41.476;22.164;2024-03-17T12:02:20;4.70;;;3.22;;
85475;SDS011;75880;41.476;22.164;2024-03-17T12:04:50;7.35;;;3.97;;
85475;SDS011;75880;41.476;22.164;2024-03-17T12:07:17;5.38;;;3.72;;
85475;SDS011;75880;41.476;22.164;2024-03-17T12:09:48;4.45;;;3.03;;
85475;SDS011;75880;41.476;22.164;2024-03-17T12:14:49;8.02;;;3.38;;
85475;SDS011;75880;41.476;22.164;2024-03-17T12:17:25;6.63;;;3.42;;
85475;SDS011;75880;41.476;22.164;2024-03-17T12:19:51;5.53;;;4.13;;
85475;SDS011;75880;41.476;22.164;2024-03-17T12:22:18;6.25;;;3.72;;
85475;SDS011;75880;41.476;22.164;2024-03-17T12:24:50;4.45;;;2.97;;
85475;SDS011;75880;41.476;22.164;2024-03-17T12:27:23;6.35;;;4.22;;
85475;SDS011;75880;41.476;22.164;2024-03-17T12:29:51;9.57;;;4.80;;
85475;SDS011;75880;41.476;22.164;2024-03-17T12:32:21;6.22;;;4.72;;
85475;SDS011;75880;41.476;22.164;2024-03-17T12:34:52;10.32;;;4.35;;
85475;SDS011;75880;41.476;22.164;2024-03-17T12:37:25;7.00;;;3.88;;
85475;SDS011;75880;41.476;22.164;2024-03-17T12:39:57;6.78;;;4.20;;
85475;SDS011;75880;41.476;22.164;2024-03-17T12:42:28;6.28;;;4.65;;
85475;SDS011;75880;41.476;22.164;2024-03-17T12:44:58;6.32;;;4.72;;
85475;SDS011;75880;41.476;22.164;2024-03-17T12:47:30;5.90;;;4.28;;
85475;SDS011;75880;41.476;22.164;2024-03-17T12:50:00;4.43;;;3.08;;
85475;SDS011;75880;41.476;22.164;2024-03-17T12:52:30;4.68;;;3.40;;
85475;SDS011;75880;41.476;22.164;2024-03-17T12:57:42;6.43;;;4.30;;
85475;SDS011;75880;41.476;22.164;2024-03-17T13:00:30;5.47;;;4.05;;
85475;SDS011;75880;41.476;22.164;2024-03-17T13:03:05;6.10;;;4.13;;
85475;SDS011;75880;41.476;22.164;2024-03-17T13:05:35;5.40;;;4.13;;
85475;SDS011;75880;41.476;22.164;2024-03-17T13:08:01;6.70;;;4.53;;
85475;SDS011;75880;41.476;22.164;2024-03-17T13:10:28;5.10;;;3.63;;
85475;SDS011;75880;41.476;22.164;2024-03-17T13:13:01;5.70;;;3.47;;
85475;SDS011;75880;41.476;22.164;2024-03-17T13:15:28;6.18;;;4.35;;
85475;SDS011;75880;41.476;22.164;2024-03-17T13:17:56;5.93;;;4.20;;
85475;SDS011;75880;41.476;22.164;2024-03-17T13:20:22;7.65;;;4.65;;
85475;SDS011;75880;41.476;22.164;2024-03-17T13:22:48;6.93;;;4.45;;
85475;SDS011;75880;41.476;22.164;2024-03-17T13:25:14;4.57;;;3.25;;
85475;SDS011;75880;41.476;22.164;2024-03-17T13:27:42;5.45;;;4.00;;
85475;SDS011;75880;41.476;22.164;2024-03-17T13:30:10;6.15;;;3.97;;
85475;SDS011;75880;41.476;22.164;2024-03-17T13:32:38;5.93;;;4.20;;
85475;SDS011;75880;41.476;22.164;2024-03-17T13:35:05;6.90;;;3.40;;
85475;SDS011;75880;41.476;22.164;2024-03-17T13:37:34;5.72;;;4.35;;
85475;SDS011;75880;41.476;22.164;2024-03-17T13:40:00;7.40;;;3.75;;
85475;SDS011;75880;41.476;22.164;2024-03-17T13:42:28;8.57;;;6.18;;
85475;SDS011;75880;41.476;22.164;2024-03-17T13:44:57;6.18;;;4.25;;
85475;SDS011;75880;41.476;22.164;2024-03-17T13:47:23;6.10;;;3.75;;
85475;SDS011;75880;41.476;22.164;2024-03-17T13:49:48;5.50;;;3.63;;
85475;SDS011;75880;41.476;22.164;2024-03-17T13:52:14;8.85;;;5.00;;
85475;SDS011;75880;41.476;22.164;2024-03-17T13:54:40;6.45;;;4.07;;
85475;SDS011;75880;41.476;22.164;2024-03-17T13:57:08;5.85;;;4.00;;
85475;SDS011;75880;41.476;22.164;2024-03-17T13:59:34;6.07;;;3.90;;
85475;SDS011;75880;41.476;22.164;2024-03-17T14:02:01;12.88;;;5.95;;
85475;SDS011;75880;41.476;22.164;2024-03-17T14:04:27;9.95;;;6.07;;
85475;SDS011;75880;41.476;22.164;2024-03-17T14:06:53;6.72;;;3.80;;
85475;SDS011;75880;41.476;22.164;2024-03-17T14:09:18;6.18;;;4.15;;
85475;SDS011;75880;41.476;22.164;2024-03-17T14:11:44;6.20;;;3.90;;
85475;SDS011;75880;41.476;22.164;2024-03-17T14:14:11;5.72;;;4.13;;
85475;SDS011;75880;41.476;22.164;2024-03-17T14:16:37;7.05;;;4.82;;
85475;SDS011;75880;41.476;22.164;2024-03-17T14:19:04;9.48;;;5.85;;
85475;SDS011;75880;41.476;22.164;2024-03-17T14:21:30;8.98;;;5.85;;
85475;SDS011;75880;41.476;22.164;2024-03-17T14:23:56;8.30;;;5.53;;
85475;SDS011;75880;41.476;22.164;2024-03-17T14:26:22;7.50;;;5.30;;
85475;SDS011;75880;41.476;22.164;2024-03-17T14:28:48;14.07;;;7.25;;
85475;SDS011;75880;41.476;22.164;2024-03-17T14:31:20;8.65;;;4.90;;
85475;SDS011;75880;41.476;22.164;2024-03-17T14:33:45;11.38;;;5.45;;
85475;SDS011;75880;41.476;22.164;2024-03-17T14:36:11;6.85;;;4.30;;
85475;SDS011;75880;41.476;22.164;2024-03-17T14:38:37;5.95;;;4.95;;
85475;SDS011;75880;41.476;22.164;2024-03-17T14:41:03;6.65;;;4.60;;
85475;SDS011;75880;41.476;22.164;2024-03-17T14:43:30;6.63;;;4.78;;
85475;SDS011;75880;41.476;22.164;2024-03-17T14:45:55;6.97;;;4.82;;
85475;SDS011;75880;41.476;22.164;2024-03-17T14:48:22;7.25;;;4.43;;
85475;SDS011;75880;41.476;22.164;2024-03-17T14:50:48;7.65;;;5.22;;
85475;SDS011;75880;41.476;22.164;2024-03-17T14:53:14;6.97;;;4.47;;
85475;SDS011;75880;41.476;22.164;2024-03-17T14:55:43;7.15;;;4.60;;
85475;SDS011;75880;41.476;22.164;2024-03-17T14:58:09;9.45;;;4.78;;
85475;SDS011;75880;41.476;22.164;2024-03-17T15:00:35;9.48;;;5.05;;
85475;SDS011;75880;41.476;22.164;2024-03-17T15:03:00;7.60;;;5.35;;
85475;SDS011;75880;41.476;22.164;2024-03-17T15:05:26;9.73;;;6.43;;
85475;SDS011;75880;41.476;22.164;2024-03-17T15:07:55;8.75;;;5.30;;
85475;SDS011;75880;41.476;22.164;2024-03-17T15:10:20;13.05;;;5.72;;
85475;SDS011;75880;41.476;22.164;2024-03-17T15:12:49;8.43;;;5.53;;